Lundu, Malaysia
Current Conditions -  °F | °C
As of 11:00 AM on Saturday 22 Nov 2014 (Local Time) from WBGG Reporting Station
Broken Clouds Broken Clouds  
Wind Chill: 88°   Ceiling: 30000
Heat Index: 100°   Visibility: 6mi
Dew Point: 77°   Wind: 3mph
Humidity: 70%   Direction: 60°ENE
Pressure: 29.83"   Gusts: NA
Location:  1.68°N, 109.85°E
Report Text: WBGG 220300Z 06003KT 9999 SCT014 BKN300 31/25 Q1010 NOSIG
Loading
Personal Weather Stations






























Interactive Weather Map New forecast layout! Learn more

10-Day Weather Forecast

Advertisements
Track Severe Weather on mobile